Tiempo atmosférico en la estación meteorológica de Blanes, Girona (60 m.)



Fecha
DESCASC
Temp. máxima en grados centígrados (hora)
DESCASC
Temp. mínima en grados centígrados (hora)
DESCASC
Temp. media en grados centígrados
DESCASC
Racha de viento máxima en m/sg (hora)
DESCASC
Velocidad máxima media en intervalos de 10 minutos(hora)
DESCASC
Precipitaciones diarias en mm
DESCASC
Precipitaciones de 00:00 a 06:00 en mm
DESCASC
Precipitaciones de 06:00 a 12:00 en mm
DESCASC
Precipitaciones de 12:00 a 18:00 en mm
DESCASC
Precipitaciones de 18:00 a 24:00 en mm
DESCASC
22-01-2020 -- (--) -- (--) -- -- (--) -- (--) -- -- 0 0.2 0
21-01-2020 12.3 (19:20) 5.4 (01:00) 8.9 23.61 (09:10) 14.72 (12:00) 59.8 38.2 7.6 2 12
20-01-2020 8.7 (22:50) 4.2 (12:00) 6.4 19.17 (04:20) 8.06 (21:10) 43 0 3.2 14.8 25
19-01-2020 11 (13:20) 7.8 (00:00) 9.4 20.28 (16:00) 9.44 (15:20) 0 0 0 0 0
18-01-2020 14.8 (13:00) 7.5 (00:00) 11.2 7.22 (08:20) 5.28 (08:10) 0 0 0 0 0
17-01-2020 18.6 (15:10) 8.9 (00:00) 13.8 11.67 (15:00) 6.11 (15:00) 0 0 0 0 0
16-01-2020 15.5 (13:20) 7.4 (00:00) 11.5 11.67 (15:00) 7.22 (15:10) 0 0 0 0 0
15-01-2020 14 (12:50) 8.8 (00:00) 11.4 12.22 (15:20) 8.33 (15:10) 0 0 0 0 0
14-01-2020 14.3 (12:50) 6 (00:00) 10.2 14.44 (16:40) 9.17 (16:50) 0 0 0 0 0
13-01-2020 13 (13:10) 5.6 (00:00) 9.3 9.44 (23:00) 5.28 (23:30) 0 0 0 0 0
12-01-2020 14.2 (14:40) 5 (00:00) 9.6 7.22 (02:30) 4.72 (02:00) 0 0 0 0 0
11-01-2020 13.6 (15:20) 5.6 (00:00) 9.6 9.17 (07:10) 6.39 (07:10) 0.2 0.2 0 0 0
10-01-2020 12.1 (16:50) 8 (00:00) 10.1 7.5 (08:00) 5 (08:00) 9 0 9 0 0
09-01-2020 14.3 (12:30) 8.5 (00:00) 11.4 14.44 (18:10) 8.33 (18:30) 0 0 0 0 0
08-01-2020 17.3 (13:20) 8.6 (00:00) 12.9 8.61 (10:30) 6.39 (15:10) 0 0 0 0 0
07-01-2020 15.4 (14:30) 8.4 (00:00) 11.9 7.5 (20:50) 5.28 (21:40) 0 0 0 0 0
06-01-2020 15.4 (15:00) 7.6 (00:00) 11.5 8.33 (08:30) 6.39 (06:10) 0 0 0 0 0
05-01-2020 16.1 (15:00) 8.7 (00:00) 12.4 8.33 (05:50) 5.83 (06:10) 0 0 0 0 0
04-01-2020 15.2 (14:30) 7.5 (00:00) 11.3 7.78 (06:30) 5 (07:10) 0 0 0 0 0
03-01-2020 13.5 (13:20) 6.1 (00:00) 9.8 8.89 (09:30) 5.28 (08:30) 0 0 0 0 0
02-01-2020 13.4 (14:40) 7.1 (00:00) 10.2 10.83 (15:20) 5.83 (16:50) 0 0 0 0 0
01-01-2020 13.5 (13:10) 6.8 (00:00) 10.2 7.22 (14:00) 4.44 (00:10) 0 0 0 0 0
31-12-2019 15.2 (12:50) 8.2 (00:00) 11.7 10.28 (14:40) 5.28 (14:50) 0 0 0 0 0
30-12-2019 14.6 (14:30) 7.5 (00:00) 11.1 6.11 (18:20) 3.61 (07:00) 0 0 0 0 0
29-12-2019 14.2 (14:10) 7.9 (00:00) 11 7.22 (10:30) 5 (08:30) 0 0 0 0 0
28-12-2019 15.1 (14:20) 8.8 (00:00) 12 8.06 (16:30) 5.83 (23:59) 0 0 0 0 0
27-12-2019 16.1 (14:20) 9.1 (00:00) 12.6 7.78 (10:30) 4.72 (10:10) 0 0 0 0 0

Gráficas

Temp. máximas Temp. mínimas Temp. medias Precipitaciones Rachas de viento máximas Velocidades máximas media en intervalos de 10 minutos

Datos horarios

Fecha y hora oficial Temperatura (ºC) Velocidad del viento (km/h) Dirección del viento Racha (km/h) Dirección de racha Precipitación (mm) Presión (hPa) Tendencia (hPa) Humedad (%)
2020-01-25 23:00:00 -- -- -- -- -- -- -- -- --
2020-01-25 22:00:00 -- -- -- -- -- -- -- -- --
2020-01-25 21:00:00 -- -- -- -- -- -- -- -- --
2020-01-25 20:00:00 -- -- -- -- -- -- -- -- --
2020-01-25 19:00:00 -- -- -- -- -- -- -- -- --
2020-01-25 18:00:00 -- -- -- -- -- -- -- -- --
2020-01-25 17:00:00 -- -- -- -- -- -- -- -- --
2020-01-25 16:00:00 -- -- -- -- -- -- -- -- --
2020-01-25 15:00:00 14.4 5 Este 9 Nordeste 0 -- -- 81
2020-01-25 14:00:00 13.5 5 Nordeste 8 Este 0 -- -- 86
2020-01-25 13:00:00 13.5 0 Calma 5 Sudeste 0 -- -- 84
2020-01-25 12:00:00 12.8 3 Sudoeste 9 Sudoeste 0 -- -- 86
2020-01-25 11:00:00 11.5 4 Noroeste 10 Noroeste 0 -- -- 87
2020-01-25 10:00:00 10.9 0 Calma 12 Noroeste 0 -- -- 94
2020-01-25 09:00:00 9.1 9 Noroeste 12 Noroeste 0 -- -- 94
2020-01-25 08:00:00 9.1 2 Norte 9 Noroeste 0 -- -- 94
2020-01-25 07:00:00 9.7 2 Norte 11 Noroeste 0 -- -- 93
2020-01-25 06:00:00 9.4 6 Noroeste 10 Noroeste 0 -- -- 95
2020-01-25 05:00:00 9.4 2 Noroeste 13 Noroeste 0 -- -- 93
2020-01-25 04:00:00 9.5 9 Noroeste 17 Noroeste 0 -- -- 93
2020-01-25 03:00:00 9.3 10 Noroeste 15 Noroeste 0 -- -- 91
2020-01-25 02:00:00 9.7 9 Norte 14 Noroeste 0 -- -- 90
2020-01-25 01:00:00 9.2 11 Norte 22 Norte 0 -- -- 90
2020-01-25 00:00:00 9.4 14 Norte 21 Norte 0 -- -- 91
2020-01-24 23:00:00 9.9 13 Norte 19 Norte 0 -- -- 92
2020-01-24 22:00:00 10.1 12 Norte 21 Norte 0 -- -- 92
2020-01-24 21:00:00 10.3 14 Norte 23 Norte 0 -- -- 91
2020-01-24 20:00:00 10.7 15 Norte 27 Norte 0 -- -- 89
2020-01-24 19:00:00 11.3 9 Norte 18 Oeste 0 -- -- 85
2020-01-24 18:00:00 12.5 6 Oeste 12 Oeste 0 -- -- 84
2020-01-24 17:00:00 13.6 6 Sudoeste 13 Sudoeste 0 -- -- 79
2020-01-24 16:00:00 14.1 5 Sur 18 Sudoeste 0 -- -- 78
2020-01-24 15:00:00 14.6 7 Sur 20 Sudoeste 0 -- -- 72
2020-01-24 14:00:00 15 7 Sur 15 Sur 0 -- -- 69
2020-01-24 13:00:00 14.6 6 Sur 15 Sudoeste 0 -- -- 73
2020-01-24 12:00:00 12.8 8 Oeste 16 Oeste 0 -- -- 71
2020-01-24 11:00:00 11.6 7 Oeste 17 Noroeste 0 -- -- 69
2020-01-24 10:00:00 9.9 11 Noroeste 15 Noroeste 0 -- -- 73
2020-01-24 09:00:00 8.6 11 Noroeste 20 Noroeste 0 -- -- 79
2020-01-24 08:00:00 8.1 0 Calma 18 Noroeste 0 -- -- 81
2020-01-24 07:00:00 8.6 14 Noroeste 22 Noroeste 0 -- -- 77
2020-01-24 06:00:00 9.1 13 Noroeste 17 Noroeste 0 -- -- 77
2020-01-24 05:00:00 9.2 9 Noroeste 18 Noroeste 0 -- -- 81
2020-01-24 04:00:00 9.5 14 Noroeste 22 Noroeste 0 -- -- 78
2020-01-24 03:00:00 9.6 12 Noroeste 20 Noroeste 0 -- -- 83
2020-01-24 02:00:00 9.5 12 Noroeste 19 Noroeste 0 -- -- 84
2020-01-24 01:00:00 9.3 6 Noroeste 10 Noroeste 0 -- -- 89
2020-01-24 00:00:00 9.4 7 Noroeste 11 Norte 0 -- -- 87
2020-01-23 23:00:00 10 4 Norte 12 Noroeste 0 -- -- 86
2020-01-23 22:00:00 10.5 8 Noroeste 13 Noroeste 0 -- -- 85
2020-01-23 21:00:00 10.7 5 Oeste 10 Sudoeste 0 -- -- 89
2020-01-23 20:00:00 10.8 5 Oeste 14 Sudoeste 0 -- -- 92
2020-01-23 19:00:00 11.1 7 Sudoeste 14 Sudoeste 0 -- -- 92
2020-01-23 18:00:00 11.9 9 Sur 17 Sudoeste 0 -- -- 89
2020-01-23 17:00:00 13.2 8 Sur 23 Sudoeste 0 -- -- 84
2020-01-23 16:00:00 14.6 7 Sur 20 Sur 0 -- -- 83
2020-01-23 15:00:00 15.4 12 Sur 19 Sudoeste 0 -- -- 79
2020-01-23 14:00:00 16.1 7 Sur 10 Sur 0 -- -- 79
2020-01-23 13:00:00 15.9 5 Sur 13 Sur 0 -- -- 79
2020-01-23 12:00:00 15.2 5 Sur 11 Sur 0 -- -- 85
2020-01-23 11:00:00 13.1 2 Sudoeste 15 Sudoeste 0 -- -- 92
2020-01-23 10:00:00 12.7 5 Oeste 27 Sudoeste 0 -- -- 98
2020-01-23 09:00:00 12.3 13 Sudoeste 32 Sur 0 -- -- 99
2020-01-23 08:00:00 13.6 7 Sudeste 39 Este 0 -- -- 100
2020-01-23 07:00:00 13.6 17 Este 39 Este 0 -- -- 100
2020-01-23 06:00:00 13.5 28 Este 47 Este 0.8 -- -- 100
2020-01-23 05:00:00 13.4 23 Este 53 Este 1 -- -- 100
2020-01-23 04:00:00 13.2 33 Este 53 Este 1.4 -- -- 99
2020-01-23 03:00:00 13.4 35 Este 48 Este 0.4 -- -- 99
2020-01-23 02:00:00 13.5 23 Este 40 Este 2.6 -- -- 98
2020-01-23 01:00:00 13.9 22 Este 36 Este 0.2 -- -- 93
2020-01-23 00:00:00 13.9 18 Este 39 Este 0 -- -- 95
2020-01-22 23:00:00 14 22 Este 40 Este 0 -- -- 94
2020-01-22 22:00:00 14.1 23 Este 42 Este 0 -- -- 94
2020-01-22 21:00:00 14.2 24 Este 49 Este 0 -- -- 92
2020-01-22 20:00:00 14.1 34 Este 49 Este 0 -- -- 93
2020-01-22 19:00:00 14.1 37 Este 49 Este 0 -- -- 93
2020-01-22 18:00:00 14.1 36 Este 46 Este 0 -- -- 94
2020-01-22 17:00:00 14 27 Este 46 Este 0 -- -- 94
2020-01-22 16:00:00 -- -- -- -- -- -- -- -- --
2020-01-22 15:00:00 -- -- -- -- -- -- -- -- --
2020-01-22 14:00:00 -- -- -- -- -- -- -- -- --
2020-01-22 13:00:00 -- -- -- -- -- -- -- -- --
2020-01-22 12:00:00 -- -- -- -- -- -- -- -- --
2020-01-22 11:00:00 -- -- -- -- -- -- -- -- --
2020-01-22 10:00:00 -- -- -- -- -- -- -- -- --
2020-01-22 09:00:00 -- -- -- -- -- -- -- -- --
2020-01-22 08:00:00 -- -- -- -- -- -- -- -- --
2020-01-22 07:00:00 -- -- -- -- -- -- -- -- --
2020-01-22 06:00:00 -- -- -- -- -- -- -- -- --
2020-01-22 05:00:00 -- -- -- -- -- -- -- -- --
2020-01-22 04:00:00 -- -- -- -- -- -- -- -- --
2020-01-22 03:00:00 -- -- -- -- -- -- -- -- --
2020-01-22 02:00:00 12.4 48 Este 72 Este 17.2 -- -- 100
2020-01-22 01:00:00 12 37 Este 81 Nordeste 6.2 -- -- 99
2020-01-22 00:00:00 11.9 40 Este 71 Este 6.8 -- -- 98
2020-01-21 23:00:00 12 47 Este 82 Este 2.8 -- -- 96
2020-01-21 22:00:00 12 48 Nordeste 74 Este 1.6 -- -- 92
2020-01-21 21:00:00 11.7 44 Nordeste 78 Nordeste 0.8 -- -- 91
2020-01-21 20:00:00 12.3 44 Nordeste 81 Nordeste 0 -- -- 83
2020-01-21 19:00:00 12.1 40 Nordeste 82 Nordeste 0 -- -- 84
2020-01-21 18:00:00 11.9 45 Nordeste 76 Nordeste 0.2 -- -- 86
2020-01-21 17:00:00 12.1 42 Nordeste 76 Nordeste 0 -- -- 86
2020-01-21 16:00:00 12.1 41 Nordeste 73 Nordeste 0 -- -- 87
2020-01-21 15:00:00 11.8 44 Nordeste 82 Nordeste 0.2 -- -- 90
2020-01-21 14:00:00 11.2 46 Este 80 Este 1.4 -- -- 96
2020-01-21 13:00:00 11.4 48 Este 82 Este 0.2 -- -- 94
2020-01-21 12:00:00 11.2 53 Este 81 Nordeste 1.2 -- -- 97
2020-01-21 11:00:00 10.9 45 Nordeste 80 Nordeste 2.2 -- -- 98
2020-01-21 10:00:00 10.6 47 Nordeste 85 Nordeste 0.8 -- -- 97
2020-01-21 09:00:00 10.3 47 Nordeste 79 Este 0.8 -- -- 98
2020-01-21 08:00:00 10.4 48 Nordeste 78 Nordeste 0.8 -- -- 97
2020-01-21 07:00:00 10.2 35 Nordeste 82 Nordeste 1.8 -- -- 98
2020-01-21 06:00:00 10.3 45 Nordeste 74 Nordeste 1.2 -- -- 98
2020-01-21 05:00:00 10.2 32 Nordeste 64 Nordeste 0.4 -- -- 100
2020-01-21 04:00:00 5.6 23 Norte 53 Norte 3 -- -- 99
2020-01-21 03:00:00 5.5 33 Norte 54 Norte 11.4 -- -- 99
2020-01-21 02:00:00 5.6 25 Norte 45 Norte 13.4 -- -- 99
2020-01-21 01:00:00 5.4 24 Norte 49 Norte 8.8 -- -- 98
2020-01-21 00:00:00 6 23 Norte 47 Norte 6.6 -- -- 96
2020-01-20 23:00:00 8.7 21 Nordeste 57 Este 4.4 -- -- 96
2020-01-20 22:00:00 8.5 27 Nordeste 58 Nordeste 3.2 -- -- 96
2020-01-20 21:00:00 8.2 29 Nordeste 54 Nordeste 3 -- -- 97
2020-01-20 20:00:00 5.5 23 Norte 48 Norte 4 -- -- 97
2020-01-20 19:00:00 5.4 22 Norte 52 Norte 3.8 -- -- 96
2020-01-20 18:00:00 5.2 21 Norte 50 Norte 2.8 -- -- 96
2020-01-20 17:00:00 5.1 17 Norte 49 Norte 3.6 -- -- 95
2020-01-20 16:00:00 5.2 16 Norte 46 Norte 3 -- -- 95
2020-01-20 15:00:00 4.2 18 Norte 55 Noroeste 2.6 -- -- 93
2020-01-20 14:00:00 4.4 20 Nordeste 63 Nordeste 1.2 -- -- 91
2020-01-20 13:00:00 4.5 21 Nordeste 51 Norte 1.6 -- -- 91
2020-01-20 12:00:00 4.2 18 Nordeste 53 Norte 2.4 -- -- 90
2020-01-20 11:00:00 4.7 20 Nordeste 59 Nordeste 0.8 -- -- 86
2020-01-20 10:00:00 6.2 29 Nordeste 69 Norte 0 -- -- 69
2020-01-20 09:00:00 7.2 21 Nordeste 61 Norte 0 -- -- 53
2020-01-20 08:00:00 7.1 23 Nordeste 66 Nordeste 0 -- -- 47
2020-01-20 07:00:00 7.1 25 Nordeste 67 Nordeste 0 -- -- 45
2020-01-20 06:00:00 7.6 27 Nordeste 64 Nordeste 0 -- -- 39
2020-01-20 05:00:00 7.4 23 Nordeste 69 Nordeste 0 -- -- 39
2020-01-20 04:00:00 7.6 24 Nordeste 67 Nordeste 0 -- -- 38
2020-01-20 03:00:00 7.8 21 Nordeste 63 Este 0 -- -- 38
2020-01-20 02:00:00 7.9 22 Nordeste 57 Este 0 -- -- 37
2020-01-20 01:00:00 8 22 Nordeste 62 Nordeste 0 -- -- 37
2020-01-20 00:00:00 8.3 22 Nordeste 67 Nordeste 0 -- -- 37
2020-01-19 23:00:00 8.6 23 Nordeste 61 Este 0 -- -- 36
2020-01-19 22:00:00 8.9 23 Nordeste 63 Norte 0 -- -- 35
2020-01-19 21:00:00 9.1 25 Nordeste 65 Norte 0 -- -- 35
2020-01-19 20:00:00 9.2 23 Nordeste 69 Nordeste 0 -- -- 36
2020-01-19 19:00:00 9.5 21 Nordeste 59 Nordeste 0 -- -- 35
2020-01-19 18:00:00 10 22 Nordeste 61 Nordeste 0 -- -- 34
2020-01-19 17:00:00 10.2 28 Nordeste 62 Nordeste 0 -- -- 33
2020-01-19 16:00:00 10.6 32 Nordeste 73 Nordeste 0 -- -- 34
2020-01-19 15:00:00 10.7 22 Nordeste 61 Este 0 -- -- 38
2020-01-19 14:00:00 10.8 21 Nordeste 55 Este 0 -- -- 38
2020-01-19 13:00:00 10.8 24 Nordeste 63 Este 0 -- -- 36
2020-01-19 12:00:00 10 26 Nordeste 64 Este 0 -- -- 40
2020-01-19 11:00:00 9.4 21 Nordeste 51 Este 0 -- -- 42
2020-01-19 10:00:00 8.3 22 Nordeste 46 Nordeste 0 -- -- 55
2020-01-19 09:00:00 8 12 Nordeste 41 Este 0 -- -- 62
2020-01-19 08:00:00 7.9 18 Nordeste 42 Nordeste 0 -- -- 69
2020-01-19 07:00:00 8 14 Nordeste 36 Este 0 -- -- 75
2020-01-19 06:00:00 8 16 Nordeste 33 Norte 0 -- -- 80
2020-01-19 05:00:00 8.8 13 Norte 34 Norte 0 -- -- 82
2020-01-19 04:00:00 9.2 17 Norte 35 Norte 0 -- -- 83
2020-01-19 03:00:00 9.2 23 Norte 34 Norte 0 -- -- 82
2020-01-19 02:00:00 9.4 19 Norte 35 Norte 0 -- -- 82
2020-01-19 01:00:00 8.9 19 Norte 27 Norte 0 -- -- 84
2020-01-19 00:00:00 8.8 18 Norte 24 Norte 0 -- -- 85
2020-01-18 23:00:00 8.3 14 Norte 21 Norte 0 -- -- 85
2020-01-18 22:00:00 8.9 12 Noroeste 17 Noroeste 0 -- -- 81
2020-01-18 21:00:00 9.3 8 Noroeste 14 Noroeste 0 -- -- 79
2020-01-18 20:00:00 9.9 5 Sudoeste 8 Sudoeste 0 -- -- 79
2020-01-18 19:00:00 10.4 0 Calma 7 Sur 0 -- -- 76
2020-01-18 18:00:00 11.2 5 Sudoeste 18 Sur 0 -- -- 71
2020-01-18 17:00:00 12.7 6 Sur 13 Sur 0 -- -- 72
2020-01-18 16:00:00 13.5 9 Sur 15 Sudeste 0 -- -- 67
2020-01-18 15:00:00 14.6 9 Sur 14 Sudeste 0 -- -- 62
2020-01-18 14:00:00 14.8 7 Sur 12 Sur 0 -- -- 61
2020-01-18 13:00:00 14.8 6 Sur 13 Sur 0 -- -- 61
2020-01-18 12:00:00 12.7 6 Sudoeste 19 Noroeste 0 -- -- 65
2020-01-18 11:00:00 10.1 12 Noroeste 19 Noroeste 0 -- -- 68
2020-01-18 10:00:00 8.6 8 Norte 24 Noroeste 0 -- -- 69
2020-01-18 09:00:00 8.2 15 Norte 26 Noroeste 0 -- -- 71
2020-01-18 08:00:00 8.2 18 Norte 24 Norte 0 -- -- 72
2020-01-18 07:00:00 8.5 10 Norte 17 Noroeste 0 -- -- 72
2020-01-18 06:00:00 8.6 11 Norte 18 Norte 0 -- -- 72
2020-01-18 05:00:00 9.5 9 Noroeste 13 Noroeste 0 -- -- 72
2020-01-18 04:00:00 9.2 5 Noroeste 13 Noroeste 0 -- -- 74
2020-01-18 03:00:00 9.6 8 Noroeste 13 Noroeste 0 -- -- 73
2020-01-18 02:00:00 9.6 8 Noroeste 11 Noroeste 0 -- -- 70
2020-01-18 01:00:00 9.5 7 Noroeste 14 Noroeste 0 -- -- 70
2020-01-18 00:00:00 9 8 Noroeste 16 Noroeste 0 -- -- 71
2020-01-17 23:00:00 9.4 3 Nordeste 12 Noroeste 0 -- -- 74
2020-01-17 22:00:00 10.2 9 Noroeste 18 Norte 0 -- -- 67
2020-01-17 21:00:00 10.1 9 Noroeste 16 Noroeste 0 -- -- 68
2020-01-17 20:00:00 10.6 6 Noroeste 13 Noroeste 0 -- -- 68
2020-01-17 19:00:00 11.9 5 Este 29 Este 0 -- -- 62
2020-01-17 18:00:00 12.9 18 Este 34 Este 0 -- -- 61
2020-01-17 17:00:00 15.3 13 Este 33 Sudoeste 0 -- -- 68
2020-01-17 16:00:00 17.6 19 Oeste 40 Sudoeste 0 -- -- 44
2020-01-17 15:00:00 18.4 22 Oeste 42 Oeste 0 -- -- 41
2020-01-17 14:00:00 18.4 15 Oeste 35 Sudoeste 0 -- -- 45
2020-01-17 13:00:00 17.8 12 Sudoeste 31 Sudoeste 0 -- -- 51
2020-01-17 12:00:00 16.9 7 Sur 26 Sudoeste 0 -- -- 60
2020-01-17 11:00:00 15.2 8 Sur 27 Oeste 0 -- -- 68
2020-01-17 10:00:00 12.6 8 Sudoeste 24 Oeste 0 -- -- 75
2020-01-17 09:00:00 11.2 14 Sudoeste 32 Sudoeste 0 -- -- 79
2020-01-17 08:00:00 11.3 16 Sudoeste 32 Oeste 0 -- -- 86
2020-01-17 07:00:00 11.7 17 Sudoeste 33 Oeste 0 -- -- 87
2020-01-17 06:00:00 11.3 14 Oeste 29 Sudoeste 0 -- -- 83
2020-01-17 05:00:00 11.4 13 Oeste 29 Oeste 0 -- -- 83
2020-01-17 04:00:00 11.4 13 Sudoeste 34 Sudoeste 0 -- -- 84
2020-01-17 03:00:00 12.1 12 Oeste 25 Oeste 0 -- -- 84
2020-01-17 02:00:00 12.4 9 Sudoeste 23 Sudoeste 0 -- -- 88
2020-01-17 01:00:00 12.3 9 Sudoeste 17 Sudoeste 0 -- -- 88
2020-01-17 00:00:00 12.4 8 Sudoeste 16 Oeste 0 -- -- 89
2020-01-16 23:00:00 12.2 8 Oeste 24 Sudoeste 0 -- -- 89
2020-01-16 22:00:00 12.4 8 Sudoeste 22 Sudoeste 0 -- -- 89
2020-01-16 21:00:00 12.1 6 Oeste 19 Oeste 0 -- -- 90
2020-01-16 20:00:00 12.5 9 Oeste 20 Sudoeste 0 -- -- 89
2020-01-16 19:00:00 12.6 13 Sudoeste 30 Sudoeste 0 -- -- 90
2020-01-16 18:00:00 12.5 11 Sudoeste 34 Sur 0 -- -- 88
2020-01-16 17:00:00 13.2 15 Sudoeste 34 Sudoeste 0 -- -- 80
2020-01-16 16:00:00 13.5 14 Sudoeste 41 Sudoeste 0 -- -- 78
2020-01-16 15:00:00 14.3 25 Sur 42 Sur 0 -- -- 74
2020-01-16 14:00:00 15.4 15 Sudoeste 30 Sur 0 -- -- 70
2020-01-16 13:00:00 15.4 8 Sur 14 Sur 0 -- -- 69
2020-01-16 12:00:00 14.2 8 Sur 13 Sudoeste 0 -- -- 63
2020-01-16 11:00:00 11.8 3 Noroeste 12 Noroeste 0 -- -- 73
2020-01-16 10:00:00 10.1 8 Noroeste 17 Noroeste 0 -- -- 74
2020-01-16 09:00:00 9.3 13 Noroeste 25 Noroeste 0 -- -- 72
2020-01-16 08:00:00 8.2 17 Noroeste 23 Noroeste 0 -- -- 73
2020-01-16 07:00:00 8.6 14 Noroeste 24 Noroeste 0 -- -- 75
2020-01-16 06:00:00 8.3 16 Noroeste 23 Norte 0 -- -- 78
2020-01-16 05:00:00 7.6 20 Noroeste 27 Noroeste 0 -- -- 74
2020-01-16 04:00:00 9 20 Norte 28 Norte 0 -- -- 70
2020-01-16 03:00:00 8.5 17 Norte 22 Noroeste 0 -- -- 76
2020-01-16 02:00:00 8 15 Noroeste 22 Norte 0 -- -- 79
2020-01-16 01:00:00 9 18 Norte 23 Norte 0 -- -- 77
2020-01-16 00:00:00 8.8 16 Norte 25 Norte 0 -- -- 76
2020-01-15 23:00:00 9.4 18 Norte 25 Norte 0 -- -- 75
2020-01-15 22:00:00 9.3 5 Noroeste 9 Noroeste 0 -- -- 74
2020-01-15 21:00:00 10.2 7 Norte 9 Norte 0 -- -- 77
2020-01-15 20:00:00 11 2 Oeste 14 Sudoeste 0 -- -- 74
2020-01-15 19:00:00 11.3 8 Sudoeste 27 Oeste 0 -- -- 71
2020-01-15 18:00:00 12 12 Sudoeste 31 Sudoeste 0 -- -- 68
2020-01-15 17:00:00 12.8 13 Sudoeste 34 Sudoeste 0 -- -- 66
2020-01-15 16:00:00 13.1 19 Sudoeste 44 Sudoeste 0 -- -- 70
2020-01-15 15:00:00 13.8 24 Sudoeste 37 Sudoeste 0 -- -- 62
2020-01-15 14:00:00 13.7 24 Sur 37 Sur 0 -- -- 60
2020-01-15 13:00:00 13.9 25 Sur 41 Sudoeste 0 -- -- 66
2020-01-15 12:00:00 13.4 22 Sudoeste 38 Sur 0 -- -- 71
2020-01-15 11:00:00 13 16 Sur 31 Sur 0 -- -- 72
2020-01-15 10:00:00 11.5 9 Sudoeste 21 Sudoeste 0 -- -- 75
2020-01-15 09:00:00 10.3 11 Sudoeste 20 Sudoeste 0 -- -- 78
2020-01-15 08:00:00 9.5 10 Sudoeste 16 Sudoeste 0 -- -- 81
2020-01-15 07:00:00 9.5 9 Sudoeste 17 Sudoeste 0 -- -- 80
2020-01-15 06:00:00 9.8 9 Oeste 19 Sudoeste 0 -- -- 79
2020-01-15 05:00:00 9.9 10 Oeste 19 Oeste 0 -- -- 78
2020-01-15 04:00:00 10.1 10 Oeste 20 Sudoeste 0 -- -- 79
2020-01-15 03:00:00 10.4 11 Oeste 19 Sudoeste 0 -- -- 78
2020-01-15 02:00:00 10.9 9 Oeste 26 Oeste 0 -- -- 76
2020-01-15 01:00:00 10.9 12 Oeste 24 Sudoeste 0 -- -- 77
2020-01-15 00:00:00 10.9 14 Oeste 24 Sudoeste 0 -- -- 78
2020-01-14 23:00:00 11 14 Oeste 26 Oeste 0 -- -- 78
2020-01-14 22:00:00 11.4 11 Oeste 24 Sudoeste 0 -- -- 77
2020-01-14 21:00:00 11.4 14 Sudoeste 31 Sudoeste 0 -- -- 78
2020-01-14 20:00:00 11.9 18 Sudoeste 39 Sudoeste 0 -- -- 75
2020-01-14 19:00:00 12.2 17 Sudoeste 36 Sur 0 -- -- 74
2020-01-14 18:00:00 12.3 14 Sudoeste 47 Sur 0 -- -- 63
2020-01-14 17:00:00 12.8 32 Sur 52 Sudoeste 0 -- -- 68
2020-01-14 16:00:00 13.3 23 Sur 50 Sudoeste 0 -- -- 58
2020-01-14 15:00:00 14 27 Sur 46 Sudoeste 0 -- -- 49
2020-01-14 14:00:00 13.9 30 Sudoeste 43 Sudoeste 0 -- -- 53
2020-01-14 13:00:00 14.2 25 Sur 40 Sudoeste 0 -- -- 53
2020-01-14 12:00:00 13.6 18 Sudoeste 28 Sudoeste 0 -- -- 58
2020-01-14 11:00:00 11.8 8 Sudoeste 16 Sudoeste 0 -- -- 56
2020-01-14 10:00:00 10.2 5 Sudoeste 16 Sudoeste 0 -- -- 57
2020-01-14 09:00:00 7.6 5 Oeste 12 Oeste 0 -- -- 61
2020-01-14 08:00:00 6.4 4 Oeste 24 Noroeste 0 -- -- 69
2020-01-14 07:00:00 6.5 15 Noroeste 25 Noroeste 0 -- -- 71
2020-01-14 06:00:00 8.2 11 Noroeste 18 Noroeste 0 -- -- 60
2020-01-14 05:00:00 7.8 13 Noroeste 18 Noroeste 0 -- -- 65
2020-01-14 04:00:00 8.7 11 Noroeste 15 Noroeste 0 -- -- 72
2020-01-14 03:00:00 9.4 8 Oeste 19 Sur 0 -- -- 77
2020-01-14 02:00:00 9.8 8 Sudoeste 30 Sudoeste 0 -- -- 79
2020-01-14 01:00:00 9.7 10 Sudoeste 30 Oeste 0 -- -- 79
2020-01-14 00:00:00 10.2 18 Oeste 34 Oeste 0 -- -- 77
2020-01-13 23:00:00 9.3 18 Oeste 34 Oeste 0 -- -- 73
2020-01-13 22:00:00 9.8 13 Oeste 27 Sudoeste 0 -- -- 73
2020-01-13 21:00:00 10 10 Oeste 25 Oeste 0 -- -- 72
2020-01-13 20:00:00 10.5 13 Oeste 28 Oeste 0 -- -- 69
2020-01-13 19:00:00 10.6 9 Oeste 21 Sudoeste 0 -- -- 66
2020-01-13 18:00:00 10.8 9 Sudoeste 22 Oeste 0 -- -- 65
2020-01-13 17:00:00 11.4 10 Sudoeste 27 Sudoeste 0 -- -- 61
2020-01-13 16:00:00 11.7 9 Sudoeste 26 Sudoeste 0 -- -- 57
2020-01-13 15:00:00 12.4 10 Sudoeste 22 Sur 0 -- -- 53
2020-01-13 14:00:00 12.6 14 Sur 21 Sur 0 -- -- 65
2020-01-13 13:00:00 12.9 6 Sur 9 Sudoeste 0 -- -- 61
2020-01-13 12:00:00 11.9 4 Este 13 Noroeste 0 -- -- 71
2020-01-13 11:00:00 10.1 6 Norte 19 Noroeste 0 -- -- 63
2020-01-13 10:00:00 7.9 10 Noroeste 18 Noroeste 0 -- -- 66
2020-01-13 09:00:00 6.8 13 Norte 23 Norte 0 -- -- 66
2020-01-13 08:00:00 5.9 14 Noroeste 19 Noroeste 0 -- -- 66
2020-01-13 07:00:00 6.3 10 Norte 14 Noroeste 0 -- -- 60
2020-01-13 06:00:00 6.6 6 Norte 16 Noroeste 0 -- -- 62
2020-01-13 05:00:00 6.6 9 Norte 26 Noroeste 0 -- -- 57
2020-01-13 04:00:00 7.6 14 Noroeste 22 Noroeste 0 -- -- 52
2020-01-13 03:00:00 7.5 14 Noroeste 21 Noroeste 0 -- -- 53
2020-01-13 02:00:00 8.9 6 Oeste 19 Oeste 0 -- -- 50
2020-01-13 01:00:00 8.2 6 Oeste 16 Oeste 0 -- -- 63
2020-01-13 00:00:00 8.1 0 Calma 14 Oeste 0 -- -- 64
2020-01-12 23:00:00 9.2 10 Noroeste 19 Noroeste 0 -- -- 68
2020-01-12 22:00:00 9.8 11 Oeste 20 Oeste 0 -- -- 79
2020-01-12 21:00:00 9.8 10 Oeste 17 Oeste 0 -- -- 80
2020-01-12 20:00:00 9.5 7 Oeste 13 Oeste 0 -- -- 81
2020-01-12 19:00:00 9.3 6 Oeste 10 Sudoeste 0 -- -- 84
2020-01-12 18:00:00 10.1 2 Nordeste 11 Sudoeste 0 -- -- 77
2020-01-12 17:00:00 11.9 7 Sudoeste 13 Sudoeste 0 -- -- 71
2020-01-12 16:00:00 12.7 7 Sur 15 Sudoeste 0 -- -- 68
2020-01-12 15:00:00 14.1 7 Sur 12 Sudoeste 0 -- -- 60
2020-01-12 14:00:00 13.5 6 Sur 17 Oeste 0 -- -- 60
2020-01-12 13:00:00 12.4 8 Oeste 13 Sudoeste 0 -- -- 58
2020-01-12 12:00:00 11.7 3 Oeste 8 Noroeste 0 -- -- 60
2020-01-12 11:00:00 9.7 6 Noroeste 14 Noroeste 0 -- -- 65
2020-01-12 10:00:00 7.7 9 Noroeste 23 Noroeste 0 -- -- 67
2020-01-12 09:00:00 6 13 Noroeste 23 Noroeste 0 -- -- 70
2020-01-12 08:00:00 5.4 16 Noroeste 21 Noroeste 0 -- -- 74
2020-01-12 07:00:00 5.6 13 Noroeste 23 Noroeste 0 -- -- 74
2020-01-12 06:00:00 5.4 15 Noroeste 20 Noroeste 0 -- -- 75
2020-01-12 05:00:00 5.3 8 Noroeste 16 Noroeste 0 -- -- 76
2020-01-12 04:00:00 6.4 11 Noroeste 21 Noroeste 0 -- -- 73
2020-01-12 03:00:00 6.7 17 Noroeste 26 Noroeste 0 -- -- 73
2020-01-12 02:00:00 6.9 17 Noroeste 25 Noroeste 0 -- -- 73
2020-01-12 01:00:00 7.3 16 Noroeste 24 Noroeste 0 -- -- 74
2020-01-12 00:00:00 7.3 17 Noroeste 26 Noroeste 0 -- -- 76
2020-01-11 23:00:00 7.8 14 Noroeste 21 Noroeste 0 -- -- 76
2020-01-11 22:00:00 8.3 13 Noroeste 18 Noroeste 0 -- -- 75
2020-01-11 21:00:00 8.7 12 Noroeste 18 Noroeste 0 -- -- 74
2020-01-11 20:00:00 8.8 9 Noroeste 13 Noroeste 0 -- -- 68
2020-01-11 19:00:00 9.2 0 Calma 11 Oeste 0 -- -- 66
2020-01-11 18:00:00 10.3 8 Oeste 12 Sudoeste 0 -- -- 62
2020-01-11 17:00:00 12.2 3 Norte 11 Noroeste 0 -- -- 52
2020-01-11 16:00:00 12.6 5 Norte 12 Noroeste 0 -- -- 53
2020-01-11 15:00:00 13.3 3 Sudoeste 14 Este 0 -- -- 54
2020-01-11 14:00:00 12.6 5 Noroeste 12 Noroeste 0 -- -- 53
2020-01-11 13:00:00 11.6 8 Noroeste 13 Noroeste 0 -- -- 58
2020-01-11 12:00:00 10.5 6 Norte 17 Norte 0 -- -- 62
2020-01-11 11:00:00 9.2 10 Norte 21 Norte 0 -- -- 68
2020-01-11 10:00:00 9 3 Noroeste 28 Norte 0 -- -- 68
2020-01-11 09:00:00 6.6 22 Norte 28 Norte 0 -- -- 75
2020-01-11 08:00:00 6.4 18 Norte 33 Norte 0 -- -- 75
2020-01-11 07:00:00 6.7 21 Norte 32 Norte 0 -- -- 78
2020-01-11 06:00:00 5.6 7 Noroeste 19 Norte 0 -- -- 82
2020-01-11 05:00:00 7.5 10 Noroeste 19 Norte 0 -- -- 73
2020-01-11 04:00:00 7.3 10 Norte 23 Norte 0 -- -- 76
2020-01-11 03:00:00 7.9 8 Norte 24 Norte 0.2 -- -- 75
2020-01-11 02:00:00 8.4 17 Noroeste 27 Noroeste 0 -- -- 73
2020-01-11 01:00:00 7.9 9 Norte 23 Norte 0 -- -- 79
2020-01-11 00:00:00 8 6 Noroeste 22 Norte 0 -- -- 78
2020-01-10 23:00:00 8.2 13 Norte 23 Norte 0 -- -- 77
2020-01-10 22:00:00 8.2 10 Norte 15 Norte 0 -- -- 81
2020-01-10 21:00:00 8.7 3 Sudoeste 18 Nordeste 0 -- -- 85
2020-01-10 20:00:00 9 8 Norte 10 Noroeste 0 -- -- 92
2020-01-10 19:00:00 9.7 4 Noroeste 15 Noroeste 0 -- -- 90
2020-01-10 18:00:00 10.5 3 Noroeste 9 Noroeste 0 -- -- 88
2020-01-10 17:00:00 12 6 Sudoeste 12 Sudoeste 0 -- -- 81
2020-01-10 16:00:00 11.8 6 Oeste 12 Oeste 0 -- -- 79
2020-01-10 15:00:00 11.3 8 Noroeste 18 Noroeste 0 -- -- 82
2020-01-10 14:00:00 10.4 12 Noroeste 18 Noroeste 0 -- -- 94
2020-01-10 13:00:00 10.4 2 Sudoeste 8 Oeste 0 -- -- 93
2020-01-10 12:00:00 9.9 5 Noroeste 15 Norte 0 -- -- 94
2020-01-10 11:00:00 9.2 13 Noroeste 22 Noroeste 0.2 -- -- 95
2020-01-10 10:00:00 9 6 Norte 14 Sudeste 0.8 -- -- 96
2020-01-10 09:00:00 9 5 Noroeste 27 Norte 0.8 -- -- 95
2020-01-10 08:00:00 9 18 Norte 27 Norte 2.4 -- -- 95
2020-01-10 07:00:00 10 12 Norte 16 Norte 4.8 -- -- 94
2020-01-10 06:00:00 10.5 4 Norte 10 Nordeste 0 -- -- 88
2020-01-10 05:00:00 10.6 4 Norte 17 Norte 0 -- -- 80
2020-01-10 04:00:00 10.9 10 Norte 19 Noroeste 0 -- -- 80
2020-01-10 03:00:00 11.8 8 Noroeste 17 Oeste 0 -- -- 74
2020-01-10 02:00:00 11.9 6 Noroeste 25 Oeste 0 -- -- 74
2020-01-10 01:00:00 11.7 6 Oeste 24 Sudoeste 0 -- -- 77
2020-01-10 00:00:00 11.4 10 Oeste 24 Oeste 0 -- -- 79
2020-01-09 23:00:00 11.3 10 Oeste 37 Sudoeste 0 -- -- 77
2020-01-09 22:00:00 11.1 18 Sudoeste 36 Sudoeste 0 -- -- 79
2020-01-09 21:00:00 11.3 20 Sudoeste 42 Oeste 0 -- -- 81
2020-01-09 20:00:00 12.2 18 Sudoeste 46 Sudoeste 0 -- -- 82
2020-01-09 19:00:00 12.3 26 Sudoeste 52 Sudoeste 0 -- -- 84
2020-01-09 18:00:00 12.3 24 Sur 46 Sudoeste 0 -- -- 83
2020-01-09 17:00:00 12.8 22 Sur 42 Sur 0 -- -- 81
2020-01-09 16:00:00 13.3 19 Sur 44 Sudoeste 0 -- -- 80
2020-01-09 15:00:00 14 26 Sur 50 Sur 0 -- -- 76
2020-01-09 14:00:00 14.1 22 Sur 42 Sur 0 -- -- 76
2020-01-09 13:00:00 14.3 15 Sudoeste 40 Sudoeste 0 -- -- 77
2020-01-09 12:00:00 14 19 Sur 32 Sudoeste 0 -- -- 78
2020-01-09 11:00:00 13 8 Sudoeste 17 Oeste 0 -- -- 80
2020-01-09 10:00:00 11.5 11 Oeste 18 Oeste 0 -- -- 82
2020-01-09 09:00:00 10.3 10 Oeste 17 Oeste 0 -- -- 91
2020-01-09 08:00:00 9.3 7 Oeste 16 Oeste 0 -- -- 97
2020-01-09 07:00:00 8.7 0 Calma 5 Sur 0 -- -- 94
2020-01-09 06:00:00 8.9 0 Calma 4 Norte 0 -- -- 92
2020-01-09 05:00:00 9.2 0 Calma 13 Noroeste 0 -- -- 88
2020-01-09 04:00:00 9.7 10 Noroeste 21 Noroeste 0 -- -- 85
2020-01-09 03:00:00 10.4 10 Noroeste 15 Noroeste 0 -- -- 81
2020-01-09 02:00:00 10.3 9 Noroeste 14 Noroeste 0 -- -- 79
2020-01-09 01:00:00 10.4 8 Noroeste 12 Noroeste 0 -- -- 78
2020-01-09 00:00:00 10.4 11 Noroeste 16 Noroeste 0 -- -- 75
2020-01-08 23:00:00 10.4 8 Noroeste 14 Noroeste 0 -- -- 76
2020-01-08 22:00:00 10.4 9 Noroeste 12 Noroeste 0 -- -- 78
2020-01-08 21:00:00 10.5 0 Calma 5 Noroeste 0 -- -- 80
2020-01-08 20:00:00 10.8 0 Calma 6 Oeste 0 -- -- 83
2020-01-08 19:00:00 11.2 3 Norte 9 Noroeste 0 -- -- 81
2020-01-08 18:00:00 12.2 4 Norte 23 Este 0 -- -- 80
2020-01-08 17:00:00 13.3 16 Este 27 Este 0 -- -- 79
2020-01-08 16:00:00 13.8 15 Este 30 Este 0 -- -- 79
2020-01-08 15:00:00 14.6 22 Este 31 Este 0 -- -- 72
2020-01-08 14:00:00 16 12 Este 24 Este 0 -- -- 64
2020-01-08 13:00:00 16.9 8 Sur 15 Este 0 -- -- 58
2020-01-08 12:00:00 15.2 7 Este 23 Norte 0 -- -- 61
2020-01-08 11:00:00 13.4 8 Norte 31 Norte 0 -- -- 65
2020-01-08 10:00:00 11.3 9 Norte 22 Norte 0 -- -- 68
2020-01-08 09:00:00 10.4 13 Norte 25 Noroeste 0 -- -- 59
2020-01-08 08:00:00 9.6 15 Norte 19 Norte 0 -- -- 65
2020-01-08 07:00:00 10.6 10 Noroeste 15 Noroeste 0 -- -- 67
2020-01-08 06:00:00 9.7 7 Noroeste 12 Noroeste 0 -- -- 70
2020-01-08 05:00:00 10.4 7 Norte 13 Nordeste 0 -- -- 71
2020-01-08 04:00:00 9.8 10 Noroeste 19 Noroeste 0 -- -- 65
2020-01-08 03:00:00 9.8 7 Norte 11 Noroeste 0 -- -- 72
2020-01-08 02:00:00 9.5 5 Norte 10 Noroeste 0 -- -- 71
2020-01-08 01:00:00 9.8 3 Norte 13 Norte 0 -- -- 61
2020-01-08 00:00:00 10.2 8 Noroeste 15 Oeste 0 -- -- 61
2020-01-07 23:00:00 11.6 9 Noroeste 22 Noroeste 0 -- -- 58
2020-01-07 22:00:00 11.8 16 Noroeste 26 Noroeste 0 -- -- 63
2020-01-07 21:00:00 12 15 Noroeste 27 Noroeste 0 -- -- 65
2020-01-07 20:00:00 13.2 13 Noroeste 21 Noroeste 0 -- -- 61
2020-01-07 19:00:00 12.6 9 Noroeste 13 Noroeste 0 -- -- 75
2020-01-07 18:00:00 12.2 6 Oeste 11 Oeste 0 -- -- 74
2020-01-07 17:00:00 14 4 Sudoeste 13 Sudoeste 0 -- -- 70
2020-01-07 16:00:00 14 9 Sudoeste 15 Oeste 0 -- -- 69
2020-01-07 15:00:00 15.2 10 Sur 15 Sur 0 -- -- 66
2020-01-07 14:00:00 14.8 5 Sur 13 Oeste 0 -- -- 68
2020-01-07 13:00:00 14 7 Oeste 13 Oeste 0 -- -- 64
2020-01-07 12:00:00 12.2 6 Noroeste 20 Norte 0 -- -- 67
2020-01-07 11:00:00 10.5 14 Noroeste 27 Noroeste 0 -- -- 71
2020-01-07 10:00:00 9.4 15 Noroeste 24 Noroeste 0 -- -- 76
2020-01-07 09:00:00 9.1 11 Noroeste 19 Noroeste 0 -- -- 82
2020-01-07 08:00:00 9.3 0 Calma 13 Sudoeste 0 -- -- 83
2020-01-07 07:00:00 9.9 6 Oeste 15 Sudoeste 0 -- -- 82
2020-01-07 06:00:00 9.8 8 Oeste 15 Oeste 0 -- -- 85
2020-01-07 05:00:00 9.6 8 Oeste 12 Sudoeste 0 -- -- 86
2020-01-07 04:00:00 9.2 7 Noroeste 14 Noroeste 0 -- -- 87
2020-01-07 03:00:00 9.4 8 Noroeste 19 Noroeste 0 -- -- 85
2020-01-07 02:00:00 9.4 13 Noroeste 22 Noroeste 0 -- -- 86
2020-01-07 01:00:00 8.4 15 Noroeste 26 Norte 0 -- -- 88
2020-01-07 00:00:00 9 16 Norte 21 Norte 0 -- -- 88
2020-01-06 23:00:00 9.2 12 Norte 21 Norte 0 -- -- 89
2020-01-06 22:00:00 9.8 11 Norte 15 Norte 0 -- -- 85
2020-01-06 21:00:00 10.3 9 Noroeste 11 Norte 0 -- -- 82
2020-01-06 20:00:00 10.6 5 Norte 10 Noroeste 0 -- -- 82
2020-01-06 19:00:00 10.9 3 Norte 5 Noroeste 0 -- -- 82
2020-01-06 18:00:00 11.8 3 Este 9 Este 0 -- -- 79
2020-01-06 17:00:00 13.1 5 Este 9 Sudeste 0 -- -- 74
2020-01-06 16:00:00 13.9 4 Este 11 Sudeste 0 -- -- 70
2020-01-06 15:00:00 15.4 3 Este 10 Sudeste 0 -- -- 64
2020-01-06 14:00:00 14.8 6 Sudeste 10 Sudeste 0 -- -- 63
2020-01-06 13:00:00 15 4 Este 11 Noroeste 0 -- -- 61
2020-01-06 12:00:00 13 8 Noroeste 20 Noroeste 0 -- -- 65
2020-01-06 11:00:00 11.9 12 Norte 24 Noroeste 0 -- -- 66
2020-01-06 10:00:00 8.9 18 Norte 26 Norte 0 -- -- 68